Saint Louis, Missouri
Traffic Map
Current Weather Conditions
Saint Louis, Missouri
Clear
Clear
19°
Feels Like: 19°
Wind Chill: 19° Ceiling: Unl
Heat Index: 19° Visibility: 10mi
Dew Point: 12° Wind: 10mph
Humidity: 65% Direction: 30° (NNE)
Pressure: 30.14in Gusts: 0mph
Raw Report DataKCPS 241253Z 03009KT 10SM CLR 19/12 A3014 RMK AO2 SLP204 T01890122 $
Traffic Incident Summary
Active as of:
Severity:
Category:
InformationThere was an issue retrieving the traffic information for this location. Please try a different location or try again shortly.
Advertisements
Track Severe Weather on mobile